createdAt,value
2023-12-11T00:00:15.732Z,74.00
2023-12-11T00:02:47.140Z,74.11
2023-12-11T00:05:16.485Z,74.10
2023-12-11T00:07:45.450Z,73.93
2023-12-11T00:10:13.588Z,73.93
2023-12-11T00:12:43.693Z,73.66
2023-12-11T00:15:12.398Z,73.64
2023-12-11T00:17:41.981Z,73.35
2023-12-11T00:20:11.695Z,73.28
2023-12-11T00:22:40.722Z,73.26
2023-12-11T00:25:11.873Z,73.05
2023-12-11T00:27:41.038Z,73.05
2023-12-11T00:30:11.192Z,73.12
2023-12-11T00:32:40.094Z,73.04
2023-12-11T00:35:09.549Z,72.80
2023-12-11T00:37:43.918Z,73.03
2023-12-11T00:40:13.021Z,73.26
2023-12-11T00:42:41.416Z,72.99
2023-12-11T00:45:14.157Z,72.75
2023-12-11T00:47:42.518Z,72.32
2023-12-11T00:50:10.902Z,72.90
2023-12-11T00:52:38.933Z,72.92
2023-12-11T00:55:08.525Z,72.84
2023-12-11T00:57:36.720Z,72.91
2023-12-11T01:00:08.127Z,72.74
2023-12-11T01:02:43.724Z,72.57
2023-12-11T01:05:13.669Z,72.49
2023-12-11T01:07:44.275Z,72.42
2023-12-11T01:10:16.178Z,72.61
2023-12-11T01:12:46.840Z,72.61
2023-12-11T01:15:19.242Z,72.41
2023-12-11T01:17:52.150Z,72.17
2023-12-11T01:20:22.275Z,72.49
2023-12-11T01:22:53.067Z,72.02
2023-12-11T01:25:21.124Z,72.33
2023-12-11T01:27:51.995Z,72.18
2023-12-11T01:30:20.651Z,72.39
2023-12-11T01:32:52.192Z,72.13
2023-12-11T01:35:20.553Z,72.63
2023-12-11T01:37:48.376Z,72.39
2023-12-11T01:40:16.372Z,72.31
2023-12-11T01:42:47.446Z,72.44
2023-12-11T01:45:15.605Z,72.22
2023-12-11T01:47:49.848Z,72.46
2023-12-11T01:50:19.652Z,72.17
2023-12-11T01:52:51.841Z,72.21
2023-12-11T01:55:19.987Z,72.29
2023-12-11T01:57:48.528Z,72.69
2023-12-11T02:00:17.004Z,72.60
2023-12-11T02:02:45.655Z,71.86
2023-12-11T02:05:13.945Z,72.25
2023-12-11T02:07:43.362Z,72.16
2023-12-11T02:10:11.861Z,71.97
2023-12-11T02:12:40.891Z,71.58
2023-12-11T02:15:09.567Z,72.04
2023-12-11T02:17:37.440Z,72.15
2023-12-11T02:20:07.208Z,72.77
2023-12-11T02:22:35.180Z,72.43
2023-12-11T02:25:06.713Z,72.76
2023-12-11T02:27:36.349Z,72.64
2023-12-11T02:30:04.422Z,72.59
2023-12-11T02:32:32.305Z,72.15
2023-12-11T02:35:00.352Z,72.32
2023-12-11T02:37:28.461Z,72.30
2023-12-11T02:39:56.554Z,72.22
2023-12-11T02:42:24.602Z,72.64
2023-12-11T02:44:54.034Z,72.25
2023-12-11T02:47:21.891Z,72.23
2023-12-11T02:49:49.955Z,72.46
2023-12-11T02:52:18.084Z,72.27
2023-12-11T02:54:45.984Z,72.67
2023-12-11T02:57:14.122Z,72.63
2023-12-11T02:59:42.017Z,72.42
2023-12-11T03:02:11.178Z,71.96
2023-12-11T03:04:40.363Z,71.85
2023-12-11T03:07:08.364Z,72.06
2023-12-11T03:09:36.434Z,71.90
2023-12-11T03:12:04.912Z,72.00
2023-12-11T03:14:32.758Z,71.82
2023-12-11T03:17:00.617Z,71.89
2023-12-11T03:19:30.130Z,72.21
2023-12-11T03:21:58.135Z,72.30
2023-12-11T03:24:26.003Z,72.16
2023-12-11T03:26:54.073Z,71.86
2023-12-11T03:29:21.989Z,71.55
2023-12-11T03:31:49.849Z,71.29
2023-12-11T03:34:18.003Z,71.51
2023-12-11T03:36:48.300Z,71.86
2023-12-11T03:39:16.577Z,71.71
2023-12-11T03:41:45.308Z,71.29
2023-12-11T03:44:13.227Z,71.88
2023-12-11T03:46:41.512Z,71.96
2023-12-11T03:49:09.912Z,71.77
2023-12-11T03:51:37.872Z,71.64
2023-12-11T03:54:06.979Z,71.85
2023-12-11T03:56:35.063Z,71.77
2023-12-11T03:59:02.970Z,71.87
2023-12-11T04:01:30.886Z,71.71
2023-12-11T04:03:59.111Z,71.86
2023-12-11T04:06:27.086Z,71.99
2023-12-11T04:08:55.163Z,72.09
2023-12-11T04:11:24.609Z,72.40
2023-12-11T04:13:52.457Z,72.19
2023-12-11T04:16:20.268Z,72.45
2023-12-11T04:18:50.724Z,72.37
2023-12-11T04:21:18.648Z,72.65
2023-12-11T04:23:46.563Z,72.66
2023-12-11T04:26:15.370Z,72.70
2023-12-11T04:28:44.560Z,72.74
2023-12-11T04:31:12.962Z,72.46
2023-12-11T04:33:41.298Z,72.63
2023-12-11T04:36:10.352Z,72.53
2023-12-11T04:38:38.597Z,72.11
2023-12-11T04:41:06.947Z,72.27
2023-12-11T04:43:35.297Z,72.28
2023-12-11T04:46:05.046Z,72.18
2023-12-11T04:48:33.973Z,72.28
2023-12-11T04:51:02.138Z,72.30
2023-12-11T04:53:33.503Z,72.13
2023-12-11T04:56:07.420Z,71.78
2023-12-11T04:58:35.761Z,71.48
2023-12-11T05:01:05.954Z,71.60
2023-12-11T05:03:33.926Z,71.25
2023-12-11T05:06:02.246Z,70.96
2023-12-11T05:08:30.793Z,70.83
2023-12-11T05:10:58.835Z,70.95
2023-12-11T05:13:26.709Z,70.79
2023-12-11T05:15:54.852Z,70.61
2023-12-11T05:18:24.814Z,70.67
2023-12-11T05:20:52.755Z,70.57
2023-12-11T05:23:20.869Z,70.31
2023-12-11T05:25:48.660Z,70.54
2023-12-11T05:28:16.531Z,70.28
2023-12-11T05:30:44.928Z,70.29
2023-12-11T05:33:12.990Z,70.61
2023-12-11T05:35:42.279Z,70.84
2023-12-11T05:38:10.387Z,70.72
2023-12-11T05:40:38.346Z,70.45
2023-12-11T05:43:06.264Z,70.50
2023-12-11T05:45:34.396Z,70.31
2023-12-11T05:48:02.288Z,69.99
2023-12-11T05:50:32.187Z,69.94
2023-12-11T05:53:03.191Z,69.76
2023-12-11T05:55:31.099Z,69.77
2023-12-11T05:57:58.970Z,69.84
2023-12-11T06:00:27.269Z,69.77
2023-12-11T06:02:55.789Z,69.70
2023-12-11T06:05:23.868Z,69.79
2023-12-11T06:07:51.666Z,69.77
2023-12-11T06:10:21.204Z,69.65
2023-12-11T06:12:49.217Z,69.93
2023-12-11T06:15:17.331Z,69.97
2023-12-11T06:17:45.500Z,70.20
2023-12-11T06:20:13.656Z,70.20
2023-12-11T06:22:41.738Z,70.32
2023-12-11T06:25:09.065Z,70.30
2023-12-11T06:27:38.317Z,70.01
2023-12-11T06:30:08.632Z,69.89
2023-12-11T06:32:36.820Z,69.98
2023-12-11T06:35:05.562Z,69.91
2023-12-11T06:37:33.541Z,69.78
2023-12-11T06:40:01.673Z,70.28
2023-12-11T06:42:33.700Z,70.37
2023-12-11T06:45:03.230Z,70.32
2023-12-11T06:47:31.307Z,70.25
2023-12-11T06:49:59.370Z,70.14
2023-12-11T06:52:28.494Z,69.97
2023-12-11T06:54:56.435Z,70.14
2023-12-11T06:57:24.349Z,70.23
2023-12-11T06:59:52.520Z,70.52
2023-12-11T07:02:21.960Z,70.55
2023-12-11T07:04:49.962Z,70.56
2023-12-11T07:07:18.146Z,70.62
2023-12-11T07:09:47.528Z,70.49
2023-12-11T07:12:15.810Z,70.55
2023-12-11T07:14:45.427Z,70.59
2023-12-11T07:17:13.349Z,70.79
2023-12-11T07:19:43.109Z,70.58
2023-12-11T07:22:11.373Z,70.50
2023-12-11T07:24:39.324Z,70.62
2023-12-11T07:27:07.187Z,70.22
2023-12-11T07:29:35.245Z,70.08
2023-12-11T07:32:03.121Z,69.73
2023-12-11T07:34:31.261Z,69.71
2023-12-11T07:37:00.790Z,69.74
2023-12-11T07:39:28.649Z,69.78
2023-12-11T07:41:56.804Z,69.93
2023-12-11T07:44:24.875Z,69.74
2023-12-11T07:46:52.721Z,69.78
2023-12-11T07:49:20.759Z,69.73
2023-12-11T07:51:48.951Z,69.54
2023-12-11T07:54:19.113Z,69.60
2023-12-11T07:56:48.395Z,69.50
2023-12-11T07:59:17.956Z,69.40
2023-12-11T08:01:46.498Z,69.41
2023-12-11T08:04:15.010Z,69.38
2023-12-11T08:06:43.313Z,69.30
2023-12-11T08:09:12.304Z,69.24
2023-12-11T08:11:41.757Z,69.08
2023-12-11T08:14:09.606Z,68.99
2023-12-11T08:16:37.466Z,68.90
2023-12-11T08:19:05.620Z,68.79
2023-12-11T08:21:34.029Z,68.75
2023-12-11T08:24:01.903Z,68.59
2023-12-11T08:26:30.074Z,68.66
2023-12-11T08:29:00.552Z,68.80
2023-12-11T08:31:29.057Z,68.56
2023-12-11T08:33:57.140Z,68.68
2023-12-11T08:36:25.039Z,68.63
2023-12-11T08:38:53.370Z,68.58
2023-12-11T08:41:21.302Z,68.44
2023-12-11T08:43:49.639Z,68.46
2023-12-11T08:46:19.166Z,68.46
2023-12-11T08:48:47.504Z,68.65
2023-12-11T08:51:18.445Z,68.59
2023-12-11T08:53:46.785Z,68.56
2023-12-11T08:56:16.393Z,68.42
2023-12-11T08:58:44.771Z,68.63
2023-12-11T09:01:12.994Z,68.51
2023-12-11T09:03:43.878Z,68.40
2023-12-11T09:06:12.129Z,68.56
2023-12-11T09:08:40.294Z,68.64
2023-12-11T09:11:08.196Z,69.11
2023-12-11T09:13:37.150Z,69.53
2023-12-11T09:16:05.702Z,69.66
2023-12-11T09:18:33.693Z,69.77
2023-12-11T09:21:03.172Z,69.67
2023-12-11T09:23:31.240Z,69.86
2023-12-11T09:25:59.054Z,70.04
2023-12-11T09:28:31.821Z,69.94
2023-12-11T09:31:05.985Z,69.96
2023-12-11T09:33:34.488Z,70.06
2023-12-11T09:36:05.020Z,70.06
2023-12-11T09:38:32.944Z,69.99
2023-12-11T09:41:01.603Z,69.91
2023-12-11T09:43:29.572Z,69.74
2023-12-11T09:45:57.702Z,69.79
2023-12-11T09:48:26.056Z,69.59
2023-12-11T09:50:54.595Z,69.50
2023-12-11T09:53:23.987Z,69.50
2023-12-11T09:55:52.500Z,69.50
2023-12-11T09:58:23.216Z,69.29
2023-12-11T10:00:51.426Z,68.94
2023-12-11T10:03:19.669Z,68.88
2023-12-11T10:05:48.392Z,68.85
2023-12-11T10:08:18.993Z,68.75
2023-12-11T10:10:48.454Z,68.40
2023-12-11T10:13:25.370Z,68.18
2023-12-11T10:15:53.965Z,68.06
2023-12-11T10:18:22.400Z,67.77
2023-12-11T10:20:55.241Z,68.00
2023-12-11T10:23:24.019Z,68.16
2023-12-11T10:25:55.217Z,67.03
2023-12-11T10:28:25.651Z,66.67
2023-12-11T10:30:55.800Z,66.59
2023-12-11T10:33:26.088Z,66.07
2023-12-11T10:35:55.140Z,65.37
2023-12-11T10:38:24.070Z,64.70
2023-12-11T10:40:54.430Z,65.76
2023-12-11T10:43:22.438Z,65.45
2023-12-11T10:45:52.060Z,64.55
2023-12-11T10:48:22.454Z,63.88
2023-12-11T10:50:51.560Z,64.18
2023-12-11T10:53:20.326Z,64.21
2023-12-11T10:55:51.543Z,64.83
2023-12-11T10:58:22.090Z,65.02
2023-12-11T11:00:50.715Z,64.71
2023-12-11T11:03:22.297Z,64.68
2023-12-11T11:05:53.641Z,63.33
2023-12-11T11:08:28.799Z,63.46
2023-12-11T11:11:03.616Z,64.34
2023-12-11T11:13:39.990Z,63.73
2023-12-11T11:16:08.311Z,64.05
2023-12-11T11:19:05.206Z,62.09
2023-12-11T11:21:33.565Z,62.24
2023-12-11T11:24:01.630Z,64.03
2023-12-11T11:26:34.885Z,64.28
2023-12-11T11:29:04.972Z,64.74
2023-12-11T11:31:52.997Z,63.92
2023-12-11T11:34:47.230Z,63.42
2023-12-11T11:37:18.681Z,63.25
2023-12-11T11:40:01.253Z,63.81
2023-12-11T11:42:32.298Z,63.22
2023-12-11T11:45:03.229Z,64.21
2023-12-11T11:47:33.654Z,64.46
2023-12-11T11:50:06.673Z,64.75
2023-12-11T11:52:37.217Z,64.13
2023-12-11T11:55:12.307Z,65.00
2023-12-11T11:57:41.117Z,64.63
2023-12-11T12:00:11.982Z,64.34
2023-12-11T12:02:40.143Z,65.19
2023-12-11T12:05:11.265Z,64.55
2023-12-11T12:07:41.261Z,64.24
2023-12-11T12:10:10.053Z,63.82
2023-12-11T12:12:38.024Z,63.55
2023-12-11T12:15:08.838Z,64.24
2023-12-11T12:17:40.257Z,63.86
2023-12-11T12:20:12.617Z,63.61
2023-12-11T12:22:41.748Z,63.68
2023-12-11T12:25:17.683Z,64.00
2023-12-11T12:27:46.973Z,63.40
2023-12-11T12:30:16.063Z,64.44
2023-12-11T12:32:45.688Z,63.37
2023-12-11T12:35:13.924Z,64.39
2023-12-11T12:37:42.389Z,64.12
2023-12-11T12:40:12.974Z,64.77
2023-12-11T12:42:41.236Z,63.89
2023-12-11T12:45:12.867Z,64.08
2023-12-11T12:47:48.104Z,62.64
2023-12-11T12:50:24.206Z,61.78
2023-12-11T12:52:52.300Z,63.25
2023-12-11T12:55:30.089Z,62.45
2023-12-11T12:57:58.825Z,61.98
2023-12-11T13:00:27.080Z,63.04
2023-12-11T13:02:56.749Z,63.03
2023-12-11T13:05:41.721Z,63.13
2023-12-11T13:08:10.405Z,63.00
2023-12-11T13:10:38.738Z,64.09
2023-12-11T13:13:12.758Z,64.49
2023-12-11T13:15:42.014Z,64.30
2023-12-11T13:18:15.316Z,63.88
2023-12-11T13:20:44.028Z,64.88
2023-12-11T13:23:12.170Z,64.23
2023-12-11T13:25:40.055Z,64.74
2023-12-11T13:28:08.342Z,64.30
2023-12-11T13:30:36.491Z,64.42
2023-12-11T13:33:04.932Z,64.81
2023-12-11T13:35:35.026Z,64.70
2023-12-11T13:38:02.965Z,64.95
2023-12-11T13:40:31.003Z,64.39
2023-12-11T13:42:59.398Z,64.94
2023-12-11T13:45:28.895Z,64.61
2023-12-11T13:47:56.908Z,65.11
2023-12-11T13:50:25.106Z,64.66
2023-12-11T13:52:54.477Z,64.20
2023-12-11T13:55:22.350Z,64.35
2023-12-11T13:57:50.549Z,64.70
2023-12-11T14:00:18.665Z,64.39
2023-12-11T14:03:00.904Z,64.45
2023-12-11T14:05:32.224Z,64.94
2023-12-11T14:08:01.987Z,64.98
2023-12-11T14:10:31.660Z,65.22
2023-12-11T14:12:59.817Z,64.91
2023-12-11T14:15:29.753Z,64.91
2023-12-11T14:17:57.943Z,64.84
2023-12-11T14:20:25.870Z,65.29
2023-12-11T14:22:54.167Z,65.41
2023-12-11T14:25:23.510Z,65.28
2023-12-11T14:27:51.439Z,65.75
2023-12-11T14:30:19.905Z,65.52
2023-12-11T14:32:48.000Z,65.52
2023-12-11T14:35:16.019Z,65.33
2023-12-11T14:37:44.165Z,65.61
2023-12-11T14:40:12.661Z,66.63
2023-12-11T14:42:41.977Z,66.88
2023-12-11T14:45:11.585Z,67.62
2023-12-11T14:47:39.558Z,67.61
2023-12-11T14:50:08.907Z,67.52
2023-12-11T14:52:39.206Z,67.94
2023-12-11T14:55:08.552Z,68.30
2023-12-11T14:57:37.457Z,68.58
2023-12-11T15:00:12.018Z,68.87
2023-12-11T15:02:39.981Z,68.67
2023-12-11T15:05:09.044Z,68.67
2023-12-11T15:07:37.799Z,68.61
2023-12-11T15:10:06.833Z,68.14
2023-12-11T15:12:36.773Z,68.12
2023-12-11T15:15:07.962Z,67.69
2023-12-11T15:17:36.365Z,67.73
2023-12-11T15:20:10.602Z,67.68
2023-12-11T15:22:38.939Z,67.42
2023-12-11T15:25:10.357Z,67.07
2023-12-11T15:27:38.675Z,66.88
2023-12-11T15:30:10.035Z,66.44
2023-12-11T15:32:38.831Z,66.41
2023-12-11T15:35:07.662Z,66.75
2023-12-11T15:37:36.109Z,66.70
2023-12-11T15:40:08.254Z,66.73
2023-12-11T15:42:39.093Z,67.12
2023-12-11T15:45:09.600Z,66.98
2023-12-11T15:47:59.977Z,66.70
2023-12-11T15:50:26.268Z,66.79
2023-12-11T15:52:54.695Z,66.75
2023-12-11T15:55:23.144Z,66.98
2023-12-11T15:57:52.737Z,66.58
2023-12-11T16:00:22.647Z,66.57
2023-12-11T16:02:50.783Z,66.76
2023-12-11T16:05:19.125Z,66.64
2023-12-11T16:07:47.360Z,66.91
2023-12-11T16:10:15.836Z,66.65
2023-12-11T16:12:44.005Z,66.34
2023-12-11T16:15:12.939Z,66.06
2023-12-11T16:17:42.524Z,65.44
2023-12-11T16:20:11.081Z,65.88
2023-12-11T16:22:39.006Z,65.67
2023-12-11T16:25:11.418Z,65.70
2023-12-11T16:27:39.768Z,65.56
2023-12-11T16:30:10.809Z,65.93
2023-12-11T16:32:38.746Z,66.04
2023-12-11T16:35:08.968Z,66.11
2023-12-11T16:37:37.243Z,66.15
2023-12-11T16:40:07.425Z,65.54
2023-12-11T16:42:36.298Z,65.82
2023-12-11T16:45:05.112Z,65.70
2023-12-11T16:47:33.713Z,65.71
2023-12-11T16:50:06.958Z,65.83
2023-12-11T16:52:38.099Z,65.60
2023-12-11T16:55:07.631Z,65.24
2023-12-11T16:57:35.562Z,65.84
2023-12-11T17:00:04.156Z,65.74
2023-12-11T17:02:32.610Z,65.32
2023-12-11T17:05:00.714Z,65.20
2023-12-11T17:07:28.978Z,64.58
2023-12-11T17:09:59.900Z,64.84
2023-12-11T17:12:28.569Z,64.16
2023-12-11T17:14:57.761Z,64.67
2023-12-11T17:17:27.035Z,63.71
2023-12-11T17:19:56.253Z,63.48
2023-12-11T17:22:24.216Z,61.60
2023-12-11T17:24:52.135Z,61.69
2023-12-11T17:27:21.636Z,61.69
2023-12-11T17:29:49.705Z,60.80
2023-12-11T17:32:17.903Z,60.27
2023-12-11T17:34:46.447Z,61.02
2023-12-11T17:37:14.479Z,59.50
2023-12-11T17:39:42.433Z,58.46
2023-12-11T17:42:10.540Z,58.09
2023-12-11T17:44:39.672Z,59.42
2023-12-11T17:47:07.529Z,57.95
2023-12-11T17:49:35.734Z,57.77
2023-12-11T17:52:03.778Z,58.09
2023-12-11T17:54:31.830Z,58.54
2023-12-11T17:57:00.052Z,59.60
2023-12-11T17:59:27.939Z,59.92
2023-12-11T18:01:57.341Z,59.79
2023-12-11T18:04:25.752Z,59.14
2023-12-11T18:06:54.924Z,60.29
2023-12-11T18:09:22.942Z,60.70
2023-12-11T18:11:51.002Z,60.72
2023-12-11T18:14:18.882Z,61.33
2023-12-11T18:16:46.776Z,61.91
2023-12-11T18:19:16.305Z,62.23
2023-12-11T18:21:44.217Z,62.02
2023-12-11T18:24:12.205Z,62.76
2023-12-11T18:26:40.626Z,62.77
2023-12-11T18:29:08.428Z,62.81
2023-12-11T18:31:36.287Z,62.73
2023-12-11T18:34:05.514Z,62.40
2023-12-11T18:36:39.830Z,62.66
2023-12-11T18:39:09.949Z,62.21
2023-12-11T18:41:37.840Z,62.73
2023-12-11T18:44:06.038Z,63.30
2023-12-11T18:46:34.244Z,63.16
2023-12-11T18:49:02.468Z,63.19
2023-12-11T18:51:31.786Z,63.37
2023-12-11T18:54:01.359Z,63.92
2023-12-11T18:56:29.466Z,63.93
2023-12-11T18:58:57.353Z,64.57
2023-12-11T19:01:25.905Z,64.38
2023-12-11T19:03:54.302Z,64.61
2023-12-11T19:06:22.510Z,64.72
2023-12-11T19:08:50.588Z,64.67
2023-12-11T19:11:19.912Z,64.10
2023-12-11T19:13:47.760Z,64.74
2023-12-11T19:16:16.012Z,64.85
2023-12-11T19:18:44.016Z,64.33
2023-12-11T19:21:14.569Z,64.43
2023-12-11T19:23:42.678Z,64.41
2023-12-11T19:26:12.814Z,64.34
2023-12-11T19:28:42.073Z,64.18
2023-12-11T19:31:10.234Z,64.12
2023-12-11T19:33:39.140Z,64.21
2023-12-11T19:36:07.965Z,64.18
2023-12-11T19:38:38.872Z,63.70
2023-12-11T19:41:08.343Z,63.43
2023-12-11T19:43:36.613Z,63.05
2023-12-11T19:46:08.450Z,63.21
2023-12-11T19:48:37.506Z,62.96
2023-12-11T19:51:12.279Z,62.88
2023-12-11T19:53:40.556Z,63.16
2023-12-11T19:56:09.343Z,62.64
2023-12-11T19:58:37.652Z,62.07
2023-12-11T20:01:07.580Z,62.23
2023-12-11T20:03:35.731Z,62.94
2023-12-11T20:06:04.723Z,62.17
2023-12-11T20:08:33.260Z,61.54
2023-12-11T20:11:01.397Z,62.11
2023-12-11T20:13:29.675Z,62.13
2023-12-11T20:15:58.014Z,61.70
2023-12-11T20:18:27.758Z,62.13
2023-12-11T20:20:55.748Z,61.90
2023-12-11T20:23:23.752Z,61.91
2023-12-11T20:25:52.254Z,61.51
2023-12-11T20:28:20.260Z,61.47
2023-12-11T20:30:48.486Z,61.65
2023-12-11T20:33:16.825Z,61.91
2023-12-11T20:35:47.330Z,61.52
2023-12-11T20:38:15.218Z,61.78
2023-12-11T20:40:43.368Z,61.44
2023-12-11T20:43:11.854Z,61.31
2023-12-11T20:45:40.118Z,61.39
2023-12-11T20:48:08.327Z,61.96
2023-12-11T20:50:36.430Z,60.92
2023-12-11T20:53:05.666Z,61.03
2023-12-11T20:55:33.839Z,61.37
2023-12-11T20:58:01.933Z,61.45
2023-12-11T21:00:29.826Z,61.06
2023-12-11T21:02:59.887Z,60.57
2023-12-11T21:05:28.561Z,60.50
2023-12-11T21:07:56.815Z,61.03
2023-12-11T21:10:26.362Z,61.50
2023-12-11T21:12:54.341Z,60.59
2023-12-11T21:15:24.950Z,61.57
2023-12-11T21:17:56.312Z,60.82
2023-12-11T21:20:24.221Z,60.59
2023-12-11T21:22:52.115Z,61.00
2023-12-11T21:25:21.028Z,61.05
2023-12-11T21:27:50.389Z,61.48
2023-12-11T21:30:20.721Z,61.44
2023-12-11T21:32:48.972Z,61.37
2023-12-11T21:35:17.119Z,61.66
2023-12-11T21:37:45.038Z,61.71
2023-12-11T21:40:14.436Z,61.83
2023-12-11T21:42:43.292Z,62.04
2023-12-11T21:45:12.533Z,61.59
2023-12-11T21:47:40.940Z,61.82
2023-12-11T21:50:11.087Z,62.26
2023-12-11T21:52:39.233Z,62.62
2023-12-11T21:55:08.353Z,62.07
2023-12-11T21:57:36.467Z,62.62
2023-12-11T22:00:05.054Z,62.83
2023-12-11T22:02:41.151Z,62.48
2023-12-11T22:05:10.162Z,62.73
2023-12-11T22:07:38.148Z,63.41
2023-12-11T22:10:07.840Z,63.46
2023-12-11T22:12:36.124Z,63.62
2023-12-11T22:15:04.383Z,63.87
2023-12-11T22:17:32.541Z,64.12
2023-12-11T22:20:02.274Z,64.24
2023-12-11T22:22:30.334Z,64.26
2023-12-11T22:24:58.305Z,64.25
2023-12-11T22:27:26.544Z,64.40
2023-12-11T22:29:54.438Z,64.63
2023-12-11T22:32:22.319Z,64.54
2023-12-11T22:34:50.642Z,64.62
2023-12-11T22:37:19.979Z,64.63
2023-12-11T22:39:47.929Z,64.91
2023-12-11T22:42:16.256Z,64.92
2023-12-11T22:44:44.144Z,64.81
2023-12-11T22:47:12.223Z,64.77
2023-12-11T22:49:40.414Z,64.83
2023-12-11T22:52:08.276Z,64.73
2023-12-11T22:54:37.724Z,64.59
2023-12-11T22:57:06.308Z,64.53
2023-12-11T22:59:34.191Z,64.35
2023-12-11T23:02:04.467Z,64.47
2023-12-11T23:04:33.528Z,64.49
2023-12-11T23:07:01.582Z,64.32
2023-12-11T23:09:29.462Z,64.48
2023-12-11T23:11:58.970Z,64.43
2023-12-11T23:14:26.975Z,64.29
2023-12-11T23:16:54.986Z,64.42
2023-12-11T23:19:23.290Z,64.32
2023-12-11T23:21:51.638Z,64.19
2023-12-11T23:24:20.003Z,64.21
2023-12-11T23:26:48.172Z,64.29
2023-12-11T23:29:17.387Z,64.30
2023-12-11T23:31:45.249Z,64.36
2023-12-11T23:34:13.464Z,64.31
2023-12-11T23:36:41.313Z,64.48
2023-12-11T23:39:09.433Z,64.54
2023-12-11T23:41:37.585Z,64.62
2023-12-11T23:44:05.870Z,64.60
2023-12-11T23:46:35.208Z,64.89
2023-12-11T23:49:03.725Z,64.94
2023-12-11T23:51:32.181Z,64.93
2023-12-11T23:54:00.088Z,65.04
2023-12-11T23:56:28.244Z,64.70
2023-12-11T23:58:56.067Z,64.78
